sensor_id;sensor_type;location;lat;lon;timestamp;pressure;altitude;pressure_sealevel;temperature;humidity
55291;BME280;41155;39.768;2.712;2023-02-20T00:00:24;102378.97;;;9.95;75.52
55291;BME280;41155;39.768;2.712;2023-02-20T00:02:50;102350.09;;;9.89;75.84
55291;BME280;41155;39.768;2.712;2023-02-20T00:05:16;102393.53;;;10.07;75.51
55291;BME280;41155;39.768;2.712;2023-02-20T00:07:42;102384.16;;;10.03;75.70
55291;BME280;41155;39.768;2.712;2023-02-20T00:10:08;102363.59;;;9.89;75.96
55291;BME280;41155;39.768;2.712;2023-02-20T00:12:33;102393.94;;;10.04;75.44
55291;BME280;41155;39.768;2.712;2023-02-20T00:14:59;102382.28;;;9.97;75.47
55291;BME280;41155;39.768;2.712;2023-02-20T00:17:24;102394.94;;;10.03;75.04
55291;BME280;41155;39.768;2.712;2023-02-20T00:19:50;102391.22;;;9.98;74.19
55291;BME280;41155;39.768;2.712;2023-02-20T00:22:15;102399.53;;;9.89;73.82
55291;BME280;41155;39.768;2.712;2023-02-20T00:24:41;102395.34;;;9.80;74.70
55291;BME280;41155;39.768;2.712;2023-02-20T00:27:07;102397.84;;;9.75;75.09
55291;BME280;41155;39.768;2.712;2023-02-20T00:29:32;102393.69;;;9.79;74.78
55291;BME280;41155;39.768;2.712;2023-02-20T00:31:58;102389.13;;;9.80;75.02
55291;BME280;41155;39.768;2.712;2023-02-20T00:34:26;102390.81;;;9.81;75.29
55291;BME280;41155;39.768;2.712;2023-02-20T00:36:52;102346.94;;;9.45;75.73
55291;BME280;41155;39.768;2.712;2023-02-20T00:39:18;102392.00;;;9.71;75.15
55291;BME280;41155;39.768;2.712;2023-02-20T00:41:43;102379.97;;;9.61;75.31
55291;BME280;41155;39.768;2.712;2023-02-20T00:44:09;102374.56;;;9.61;75.51
55291;BME280;41155;39.768;2.712;2023-02-20T00:46:35;102386.41;;;9.66;75.88
55291;BME280;41155;39.768;2.712;2023-02-20T00:49:00;102384.72;;;9.65;75.79
55291;BME280;41155;39.768;2.712;2023-02-20T00:51:26;102386.59;;;9.65;75.68
55291;BME280;41155;39.768;2.712;2023-02-20T00:53:52;102367.50;;;9.53;75.68
55291;BME280;41155;39.768;2.712;2023-02-20T00:56:18;102378.91;;;9.55;75.94
55291;BME280;41155;39.768;2.712;2023-02-20T00:58:43;102382.03;;;9.59;75.83
55291;BME280;41155;39.768;2.712;2023-02-20T01:01:09;102349.84;;;9.44;75.62
55291;BME280;41155;39.768;2.712;2023-02-20T01:03:35;102374.97;;;9.58;75.91
55291;BME280;41155;39.768;2.712;2023-02-20T01:06:00;102367.31;;;9.55;75.74
55291;BME280;41155;39.768;2.712;2023-02-20T01:08:26;102368.72;;;9.57;75.72
55291;BME280;41155;39.768;2.712;2023-02-20T01:10:52;102355.22;;;9.44;75.15
55291;BME280;41155;39.768;2.712;2023-02-20T01:13:18;102376.00;;;9.57;75.18
55291;BME280;41155;39.768;2.712;2023-02-20T01:15:43;102380.75;;;9.48;73.61
55291;BME280;41155;39.768;2.712;2023-02-20T01:18:09;102355.00;;;9.32;73.79
55291;BME280;41155;39.768;2.712;2023-02-20T01:20:34;102341.88;;;9.22;73.98
55291;BME280;41155;39.768;2.712;2023-02-20T01:23:00;102337.94;;;9.18;74.55
55291;BME280;41155;39.768;2.712;2023-02-20T01:25:26;102354.94;;;9.25;74.84
55291;BME280;41155;39.768;2.712;2023-02-20T01:27:51;102360.97;;;9.27;75.10
55291;BME280;41155;39.768;2.712;2023-02-20T01:30:17;102360.78;;;9.29;75.27
55291;BME280;41155;39.768;2.712;2023-02-20T01:32:42;102338.13;;;9.10;75.41
55291;BME280;41155;39.768;2.712;2023-02-20T01:35:08;102321.53;;;9.07;75.08
55291;BME280;41155;39.768;2.712;2023-02-20T01:37:34;102326.84;;;8.93;75.38
55291;BME280;41155;39.768;2.712;2023-02-20T01:39:59;102337.69;;;9.07;75.52
55291;BME280;41155;39.768;2.712;2023-02-20T01:42:28;102306.94;;;8.88;76.24
55291;BME280;41155;39.768;2.712;2023-02-20T01:45:10;102332.91;;;9.02;76.29
55291;BME280;41155;39.768;2.712;2023-02-20T01:47:38;102335.41;;;9.03;76.58
55291;BME280;41155;39.768;2.712;2023-02-20T01:50:05;102336.41;;;9.02;76.35
55291;BME280;41155;39.768;2.712;2023-02-20T01:52:33;102338.09;;;9.03;75.94
55291;BME280;41155;39.768;2.712;2023-02-20T01:55:24;102329.78;;;8.98;75.98
55291;BME280;41155;39.768;2.712;2023-02-20T01:58:43;102294.28;;;8.81;76.05
55291;BME280;41155;39.768;2.712;2023-02-20T02:00:43;102302.16;;;8.83;75.76
55291;BME280;41155;39.768;2.712;2023-02-20T02:03:11;102310.06;;;8.91;75.65
55291;BME280;41155;39.768;2.712;2023-02-20T02:05:39;102328.56;;;9.01;75.01
55291;BME280;41155;39.768;2.712;2023-02-20T02:08:07;102322.91;;;8.89;74.99
55291;BME280;41155;39.768;2.712;2023-02-20T02:10:58;102318.72;;;8.80;75.26
55291;BME280;41155;39.768;2.712;2023-02-20T02:13:26;102300.28;;;8.77;75.60
55291;BME280;41155;39.768;2.712;2023-02-20T02:15:53;102309.59;;;8.81;76.47
55291;BME280;41155;39.768;2.712;2023-02-20T02:27:35;102292.19;;;8.77;76.64
55291;BME280;41155;39.768;2.712;2023-02-20T02:36:12;102304.63;;;8.78;75.38
55291;BME280;41155;39.768;2.712;2023-02-20T02:38:50;102291.34;;;8.76;75.29
55291;BME280;41155;39.768;2.712;2023-02-20T02:41:21;102288.84;;;8.68;75.73
55291;BME280;41155;39.768;2.712;2023-02-20T02:43:56;102263.91;;;8.53;76.07
55291;BME280;41155;39.768;2.712;2023-02-20T02:49:16;102261.66;;;8.56;76.16
55291;BME280;41155;39.768;2.712;2023-02-20T02:51:45;102283.06;;;8.71;76.18
55291;BME280;41155;39.768;2.712;2023-02-20T02:54:17;102283.88;;;8.72;76.13
55291;BME280;41155;39.768;2.712;2023-02-20T02:56:48;102260.41;;;8.59;76.12
55291;BME280;41155;39.768;2.712;2023-02-20T02:59:19;102265.19;;;8.64;75.59
55291;BME280;41155;39.768;2.712;2023-02-20T03:01:51;102283.47;;;8.68;75.78
55291;BME280;41155;39.768;2.712;2023-02-20T03:04:18;102281.75;;;8.60;75.96
55291;BME280;41155;39.768;2.712;2023-02-20T03:06:51;102282.16;;;8.57;76.11
55291;BME280;41155;39.768;2.712;2023-02-20T03:09:42;102255.09;;;8.37;75.65
55291;BME280;41155;39.768;2.712;2023-02-20T03:12:06;102255.78;;;8.46;74.82
55291;BME280;41155;39.768;2.712;2023-02-20T03:20:41;102276.69;;;8.44;76.20
55291;BME280;41155;39.768;2.712;2023-02-20T03:23:13;102246.59;;;8.34;76.42
55291;BME280;41155;39.768;2.712;2023-02-20T03:25:53;102265.31;;;8.42;76.93
55291;BME280;41155;39.768;2.712;2023-02-20T03:28:47;102262.16;;;8.38;76.77
55291;BME280;41155;39.768;2.712;2023-02-20T03:31:25;102216.84;;;8.07;77.02
55291;BME280;41155;39.768;2.712;2023-02-20T03:34:02;102229.69;;;8.12;77.13
55291;BME280;41155;39.768;2.712;2023-02-20T03:37:02;102246.31;;;8.22;76.67
55291;BME280;41155;39.768;2.712;2023-02-20T03:39:51;102247.53;;;8.20;77.23
55291;BME280;41155;39.768;2.712;2023-02-20T03:42:40;102265.03;;;8.37;77.08
55291;BME280;41155;39.768;2.712;2023-02-20T03:45:27;102246.34;;;8.29;76.83
55291;BME280;41155;39.768;2.712;2023-02-20T03:48:00;102256.53;;;8.33;76.06
55291;BME280;41155;39.768;2.712;2023-02-20T03:50:27;102219.53;;;8.07;75.92
55291;BME280;41155;39.768;2.712;2023-02-20T03:52:53;102215.56;;;8.03;76.24
55291;BME280;41155;39.768;2.712;2023-02-20T03:55:19;102278.31;;;8.38;75.48
55291;BME280;41155;39.768;2.712;2023-02-20T03:57:48;102265.84;;;8.31;75.57
55291;BME280;41155;39.768;2.712;2023-02-20T04:00:19;102272.28;;;8.36;75.37
55291;BME280;41155;39.768;2.712;2023-02-20T04:02:47;102276.19;;;8.34;75.09
55291;BME280;41155;39.768;2.712;2023-02-20T04:05:20;102243.28;;;8.04;75.06
55291;BME280;41155;39.768;2.712;2023-02-20T04:10:36;102231.16;;;7.86;77.04
55291;BME280;41155;39.768;2.712;2023-02-20T04:13:04;102220.63;;;7.85;77.39
55291;BME280;41155;39.768;2.712;2023-02-20T04:15:31;102225.78;;;7.86;77.21
55291;BME280;41155;39.768;2.712;2023-02-20T04:18:07;102236.66;;;8.00;77.56
55291;BME280;41155;39.768;2.712;2023-02-20T04:20:34;102220.41;;;7.86;77.08
55291;BME280;41155;39.768;2.712;2023-02-20T04:23:12;102257.88;;;8.16;77.35
55291;BME280;41155;39.768;2.712;2023-02-20T04:25:48;102271.34;;;8.16;77.15
55291;BME280;41155;39.768;2.712;2023-02-20T04:28:16;102213.34;;;7.79;77.15
55291;BME280;41155;39.768;2.712;2023-02-20T04:30:42;102254.31;;;8.09;76.41
55291;BME280;41155;39.768;2.712;2023-02-20T04:33:12;102257.28;;;7.92;75.61
55291;BME280;41155;39.768;2.712;2023-02-20T04:35:40;102270.38;;;7.96;75.70
55291;BME280;41155;39.768;2.712;2023-02-20T04:38:06;102250.91;;;7.72;76.37
55291;BME280;41155;39.768;2.712;2023-02-20T04:40:32;102258.41;;;7.77;77.24
55291;BME280;41155;39.768;2.712;2023-02-20T04:42:58;102253.88;;;7.77;77.21
55291;BME280;41155;39.768;2.712;2023-02-20T04:45:23;102271.50;;;7.86;77.30
55291;BME280;41155;39.768;2.712;2023-02-20T04:47:49;102210.63;;;7.51;78.09
55291;BME280;41155;39.768;2.712;2023-02-20T04:50:24;102235.81;;;7.71;77.96
55291;BME280;41155;39.768;2.712;2023-02-20T04:52:51;102251.81;;;7.79;77.60
55291;BME280;41155;39.768;2.712;2023-02-20T04:55:16;102254.94;;;7.83;77.76
55291;BME280;41155;39.768;2.712;2023-02-20T04:57:42;102276.09;;;7.92;77.42
55291;BME280;41155;39.768;2.712;2023-02-20T05:00:09;102273.06;;;7.96;76.74
55291;BME280;41155;39.768;2.712;2023-02-20T05:02:37;102277.19;;;7.98;76.46
55291;BME280;41155;39.768;2.712;2023-02-20T05:05:03;102277.78;;;7.93;76.17
55291;BME280;41155;39.768;2.712;2023-02-20T05:07:28;102280.09;;;7.97;75.97
55291;BME280;41155;39.768;2.712;2023-02-20T05:09:54;102285.03;;;7.93;76.10
55291;BME280;41155;39.768;2.712;2023-02-20T05:12:19;102253.44;;;7.74;76.16
55291;BME280;41155;39.768;2.712;2023-02-20T05:14:46;102261.94;;;7.77;76.15
55291;BME280;41155;39.768;2.712;2023-02-20T05:17:11;102288.72;;;7.92;76.26
55291;BME280;41155;39.768;2.712;2023-02-20T05:19:37;102298.28;;;7.95;76.06
55291;BME280;41155;39.768;2.712;2023-02-20T05:22:08;102306.72;;;7.91;76.12
55291;BME280;41155;39.768;2.712;2023-02-20T05:24:44;102280.28;;;7.67;75.14
55291;BME280;41155;39.768;2.712;2023-02-20T05:27:10;102287.13;;;7.69;75.25
55291;BME280;41155;39.768;2.712;2023-02-20T05:29:35;102281.03;;;7.61;75.93
55291;BME280;41155;39.768;2.712;2023-02-20T05:32:01;102285.38;;;7.62;76.09
55291;BME280;41155;39.768;2.712;2023-02-20T05:34:27;102305.72;;;7.71;76.23
55291;BME280;41155;39.768;2.712;2023-02-20T05:36:53;102286.03;;;7.64;76.11
55291;BME280;41155;39.768;2.712;2023-02-20T05:39:19;102298.94;;;7.75;75.92
55291;BME280;41155;39.768;2.712;2023-02-20T05:41:44;102305.78;;;7.78;76.10
55291;BME280;41155;39.768;2.712;2023-02-20T05:44:10;102307.59;;;7.70;75.66
55291;BME280;41155;39.768;2.712;2023-02-20T05:46:40;102304.06;;;7.70;75.65
55291;BME280;41155;39.768;2.712;2023-02-20T05:49:06;102303.69;;;7.73;75.91
55291;BME280;41155;39.768;2.712;2023-02-20T05:51:32;102273.53;;;7.56;76.11
55291;BME280;41155;39.768;2.712;2023-02-20T05:53:57;102299.97;;;7.74;76.08
55291;BME280;41155;39.768;2.712;2023-02-20T05:56:23;102307.59;;;7.70;75.73
55291;BME280;41155;39.768;2.712;2023-02-20T05:58:48;102315.53;;;7.79;75.73
55291;BME280;41155;39.768;2.712;2023-02-20T06:01:18;102313.84;;;7.78;75.80
55291;BME280;41155;39.768;2.712;2023-02-20T06:03:44;102319.44;;;7.76;75.69
55291;BME280;41155;39.768;2.712;2023-02-20T06:06:10;102290.84;;;7.47;75.77
55291;BME280;41155;39.768;2.712;2023-02-20T06:08:35;102329.22;;;7.62;75.60
55291;BME280;41155;39.768;2.712;2023-02-20T06:11:01;102288.22;;;7.32;75.68
55291;BME280;41155;39.768;2.712;2023-02-20T06:13:26;102304.78;;;7.36;76.28
55291;BME280;41155;39.768;2.712;2023-02-20T06:15:52;102318.81;;;7.53;75.79
55291;BME280;41155;39.768;2.712;2023-02-20T06:18:17;102346.44;;;7.68;76.25
55291;BME280;41155;39.768;2.712;2023-02-20T06:20:43;102346.78;;;7.58;76.07
55291;BME280;41155;39.768;2.712;2023-02-20T06:23:08;102327.25;;;7.50;76.40
55291;BME280;41155;39.768;2.712;2023-02-20T06:25:34;102333.25;;;7.52;76.21
55291;BME280;41155;39.768;2.712;2023-02-20T06:27:59;102343.69;;;7.61;76.64
55291;BME280;41155;39.768;2.712;2023-02-20T06:30:24;102346.63;;;7.66;76.50
55291;BME280;41155;39.768;2.712;2023-02-20T06:32:50;102349.97;;;7.68;76.06
55291;BME280;41155;39.768;2.712;2023-02-20T06:35:15;102354.25;;;7.63;75.54
55291;BME280;41155;39.768;2.712;2023-02-20T06:37:42;102333.50;;;7.57;75.29
55291;BME280;41155;39.768;2.712;2023-02-20T06:40:07;102365.81;;;7.63;75.52
55291;BME280;41155;39.768;2.712;2023-02-20T06:42:33;102355.00;;;7.57;75.36
55291;BME280;41155;39.768;2.712;2023-02-20T06:44:58;102369.00;;;7.67;75.29
55291;BME280;41155;39.768;2.712;2023-02-20T06:47:27;102368.34;;;7.65;75.56
55291;BME280;41155;39.768;2.712;2023-02-20T06:49:52;102359.00;;;7.61;75.80
55291;BME280;41155;39.768;2.712;2023-02-20T06:52:18;102361.31;;;7.64;75.62
55291;BME280;41155;39.768;2.712;2023-02-20T06:54:43;102348.59;;;7.58;75.85
55291;BME280;41155;39.768;2.712;2023-02-20T06:57:09;102344.47;;;7.55;75.34
55291;BME280;41155;39.768;2.712;2023-02-20T06:59:35;102386.53;;;7.84;75.57
55291;BME280;41155;39.768;2.712;2023-02-20T07:02:07;102383.63;;;7.86;75.33
55291;BME280;41155;39.768;2.712;2023-02-20T07:04:35;102387.16;;;7.86;75.07
55291;BME280;41155;39.768;2.712;2023-02-20T07:07:00;102381.59;;;7.88;74.75
55291;BME280;41155;39.768;2.712;2023-02-20T07:09:26;102386.03;;;7.96;74.66
55291;BME280;41155;39.768;2.712;2023-02-20T07:11:52;102394.72;;;7.98;74.24
55291;BME280;41155;39.768;2.712;2023-02-20T07:14:18;102371.53;;;7.97;74.42
55291;BME280;41155;39.768;2.712;2023-02-20T07:16:44;102360.97;;;7.95;74.29
55291;BME280;41155;39.768;2.712;2023-02-20T07:23:50;102392.63;;;8.21;73.93
55291;BME280;41155;39.768;2.712;2023-02-20T07:26:18;102391.69;;;8.29;73.50
55291;BME280;41155;39.768;2.712;2023-02-20T07:28:43;102362.81;;;8.16;73.74
55291;BME280;41155;39.768;2.712;2023-02-20T07:31:09;102359.22;;;8.09;73.65
55291;BME280;41155;39.768;2.712;2023-02-20T07:33:34;102387.13;;;8.29;73.77
55291;BME280;41155;39.768;2.712;2023-02-20T07:36:00;102384.00;;;8.26;73.74
55291;BME280;41155;39.768;2.712;2023-02-20T07:38:25;102397.25;;;8.49;73.32
55291;BME280;41155;39.768;2.712;2023-02-20T07:40:51;102392.69;;;8.49;73.17
55291;BME280;41155;39.768;2.712;2023-02-20T07:43:17;102379.59;;;8.40;73.10
55291;BME280;41155;39.768;2.712;2023-02-20T07:45:42;102371.13;;;8.43;73.07
55291;BME280;41155;39.768;2.712;2023-02-20T07:48:07;102389.16;;;8.49;72.99
55291;BME280;41155;39.768;2.712;2023-02-20T07:50:33;102384.81;;;8.48;73.30
55291;BME280;41155;39.768;2.712;2023-02-20T07:52:59;102388.78;;;8.52;73.49
55291;BME280;41155;39.768;2.712;2023-02-20T07:55:24;102390.91;;;8.56;74.22
55291;BME280;41155;39.768;2.712;2023-02-20T07:57:50;102391.47;;;8.52;74.09
55291;BME280;41155;39.768;2.712;2023-02-20T08:00:23;102392.53;;;8.57;74.22
55291;BME280;41155;39.768;2.712;2023-02-20T08:02:49;102385.50;;;8.56;74.25
55291;BME280;41155;39.768;2.712;2023-02-20T08:05:14;102387.81;;;8.59;74.26
55291;BME280;41155;39.768;2.712;2023-02-20T08:07:45;102364.97;;;8.55;74.59
55291;BME280;41155;39.768;2.712;2023-02-20T08:10:11;102379.00;;;8.79;74.18
55291;BME280;41155;39.768;2.712;2023-02-20T08:12:38;102396.50;;;8.96;74.11
55291;BME280;41155;39.768;2.712;2023-02-20T08:15:03;102387.44;;;9.11;73.93
55291;BME280;41155;39.768;2.712;2023-02-20T08:17:29;102375.69;;;9.18;73.37
55291;BME280;41155;39.768;2.712;2023-02-20T08:19:55;102397.56;;;9.50;72.92
55291;BME280;41155;39.768;2.712;2023-02-20T08:22:20;102390.16;;;9.79;72.04
55291;BME280;41155;39.768;2.712;2023-02-20T08:24:45;102372.56;;;10.56;69.88
55291;BME280;41155;39.768;2.712;2023-02-20T08:27:11;102394.59;;;12.70;63.56
55291;BME280;41155;39.768;2.712;2023-02-20T08:29:36;102404.41;;;14.52;58.26
55291;BME280;41155;39.768;2.712;2023-02-20T08:32:02;102395.56;;;15.89;54.21
55291;BME280;41155;39.768;2.712;2023-02-20T08:34:28;102374.28;;;17.47;49.11
55291;BME280;41155;39.768;2.712;2023-02-20T08:36:53;102376.34;;;19.16;43.93
55291;BME280;41155;39.768;2.712;2023-02-20T08:39:19;102387.72;;;20.63;40.42
55291;BME280;41155;39.768;2.712;2023-02-20T08:41:45;102388.66;;;21.97;38.21
55291;BME280;41155;39.768;2.712;2023-02-20T08:44:11;102382.63;;;23.06;34.58
55291;BME280;41155;39.768;2.712;2023-02-20T08:46:45;102378.94;;;24.05;32.80
55291;BME280;41155;39.768;2.712;2023-02-20T08:49:10;102373.72;;;25.06;31.24
55291;BME280;41155;39.768;2.712;2023-02-20T08:51:36;102377.78;;;25.22;31.03
55291;BME280;41155;39.768;2.712;2023-02-20T08:54:01;102354.06;;;26.11;29.49
55291;BME280;41155;39.768;2.712;2023-02-20T08:56:28;102378.66;;;26.83;27.41
55291;BME280;41155;39.768;2.712;2023-02-20T08:58:54;102376.50;;;27.38;26.49
55291;BME280;41155;39.768;2.712;2023-02-20T09:01:19;102382.47;;;28.18;25.91
55291;BME280;41155;39.768;2.712;2023-02-20T09:03:45;102369.75;;;28.64;24.01
55291;BME280;41155;39.768;2.712;2023-02-20T09:06:10;102373.03;;;28.87;23.70
55291;BME280;41155;39.768;2.712;2023-02-20T09:08:36;102380.63;;;29.49;23.06
55291;BME280;41155;39.768;2.712;2023-02-20T09:11:02;102394.59;;;29.83;22.26
55291;BME280;41155;39.768;2.712;2023-02-20T09:13:27;102366.31;;;29.93;22.02
55291;BME280;41155;39.768;2.712;2023-02-20T09:15:53;102376.53;;;29.89;22.20
55291;BME280;41155;39.768;2.712;2023-02-20T09:18:18;102371.09;;;28.49;23.03
55291;BME280;41155;39.768;2.712;2023-02-20T09:20:44;102357.81;;;28.16;24.23
55291;BME280;41155;39.768;2.712;2023-02-20T09:23:09;102388.22;;;26.60;27.45
55291;BME280;41155;39.768;2.712;2023-02-20T09:25:35;102362.31;;;26.56;26.25
55291;BME280;41155;39.768;2.712;2023-02-20T09:28:01;102356.66;;;25.62;26.47
55291;BME280;41155;39.768;2.712;2023-02-20T09:30:26;102392.22;;;25.05;27.99
55291;BME280;41155;39.768;2.712;2023-02-20T09:32:52;102381.59;;;24.43;29.92
55291;BME280;41155;39.768;2.712;2023-02-20T09:35:27;102383.84;;;23.76;31.01
55291;BME280;41155;39.768;2.712;2023-02-20T09:37:53;102375.00;;;23.17;31.55
55291;BME280;41155;39.768;2.712;2023-02-20T09:40:23;102367.84;;;22.49;32.72
55291;BME280;41155;39.768;2.712;2023-02-20T09:43:21;102379.00;;;21.20;34.13
55291;BME280;41155;39.768;2.712;2023-02-20T09:51:16;102308.69;;;20.44;33.34
55291;BME280;41155;39.768;2.712;2023-02-20T09:56:15;102364.97;;;20.31;33.49
55291;BME280;41155;39.768;2.712;2023-02-20T09:59:01;102366.59;;;20.58;32.73
55291;BME280;41155;39.768;2.712;2023-02-20T10:01:28;102335.56;;;20.47;33.49
55291;BME280;41155;39.768;2.712;2023-02-20T10:04:03;102360.69;;;21.01;31.88
55291;BME280;41155;39.768;2.712;2023-02-20T10:06:32;102367.06;;;21.40;31.81
55291;BME280;41155;39.768;2.712;2023-02-20T10:08:58;102330.56;;;20.80;32.88
55291;BME280;41155;39.768;2.712;2023-02-20T10:19:53;102354.56;;;26.44;24.95
55291;BME280;41155;39.768;2.712;2023-02-20T10:22:35;102315.09;;;29.19;22.22
55291;BME280;41155;39.768;2.712;2023-02-20T10:25:18;102345.81;;;29.98;21.73
55291;BME280;41155;39.768;2.712;2023-02-20T10:30:24;102331.22;;;32.78;17.88
55291;BME280;41155;39.768;2.712;2023-02-20T10:35:30;102351.81;;;33.05;17.82
55291;BME280;41155;39.768;2.712;2023-02-20T10:37:58;102351.56;;;32.95;16.90
55291;BME280;41155;39.768;2.712;2023-02-20T10:40:47;102343.25;;;35.28;15.63
55291;BME280;41155;39.768;2.712;2023-02-20T10:43:24;102356.06;;;35.56;15.54
55291;BME280;41155;39.768;2.712;2023-02-20T10:49:10;102346.69;;;38.55;13.67
55291;BME280;41155;39.768;2.712;2023-02-20T10:51:42;102336.63;;;38.47;14.04
55291;BME280;41155;39.768;2.712;2023-02-20T10:54:10;102354.03;;;39.48;13.76
55291;BME280;41155;39.768;2.712;2023-02-20T10:56:54;102346.06;;;39.95;13.25
55291;BME280;41155;39.768;2.712;2023-02-20T10:59:32;102337.06;;;40.11;13.42
55291;BME280;41155;39.768;2.712;2023-02-20T11:02:04;102333.31;;;40.66;13.32
55291;BME280;41155;39.768;2.712;2023-02-20T11:04:36;102340.13;;;40.72;12.99
55291;BME280;41155;39.768;2.712;2023-02-20T11:07:12;102329.34;;;41.25;12.75
55291;BME280;41155;39.768;2.712;2023-02-20T11:09:39;102318.09;;;40.87;12.53
55291;BME280;41155;39.768;2.712;2023-02-20T11:12:05;102335.13;;;41.45;12.26
55291;BME280;41155;39.768;2.712;2023-02-20T11:14:39;102328.66;;;41.98;11.79
55291;BME280;41155;39.768;2.712;2023-02-20T11:17:12;102319.66;;;42.47;11.64
55291;BME280;41155;39.768;2.712;2023-02-20T11:19:49;102315.34;;;42.82;11.18
55291;BME280;41155;39.768;2.712;2023-02-20T11:22:44;102304.59;;;43.10;11.07
55291;BME280;41155;39.768;2.712;2023-02-20T11:27:40;102294.22;;;43.72;10.41
55291;BME280;41155;39.768;2.712;2023-02-20T11:32:41;102278.59;;;43.64;10.70
55291;BME280;41155;39.768;2.712;2023-02-20T11:35:27;102293.50;;;44.01;10.22
55291;BME280;41155;39.768;2.712;2023-02-20T11:43:22;102259.03;;;44.12;9.56
55291;BME280;41155;39.768;2.712;2023-02-20T11:45:49;102272.72;;;44.75;9.40
55291;BME280;41155;39.768;2.712;2023-02-20T11:48:19;102273.38;;;44.66;9.32
55291;BME280;41155;39.768;2.712;2023-02-20T11:50:52;102283.38;;;44.87;9.49
55291;BME280;41155;39.768;2.712;2023-02-20T11:53:20;102273.06;;;44.77;9.37
55291;BME280;41155;39.768;2.712;2023-02-20T11:55:47;102267.28;;;44.22;10.48
55291;BME280;41155;39.768;2.712;2023-02-20T11:58:22;102260.25;;;43.49;10.71
55291;BME280;41155;39.768;2.712;2023-02-20T12:00:49;102280.88;;;43.00;11.42
55291;BME280;41155;39.768;2.712;2023-02-20T12:03:20;102266.31;;;41.95;11.94
55291;BME280;41155;39.768;2.712;2023-02-20T12:05:47;102259.56;;;41.62;12.27
55291;BME280;41155;39.768;2.712;2023-02-20T12:10:52;102279.28;;;42.39;11.72
55291;BME280;41155;39.768;2.712;2023-02-20T12:13:18;102274.81;;;42.38;11.46
55291;BME280;41155;39.768;2.712;2023-02-20T12:15:55;102244.78;;;41.50;12.02
55291;BME280;41155;39.768;2.712;2023-02-20T12:18:35;102254.69;;;41.89;11.93
55291;BME280;41155;39.768;2.712;2023-02-20T12:21:47;102267.78;;;42.66;12.15
55291;BME280;41155;39.768;2.712;2023-02-20T12:35:32;102247.19;;;41.52;12.74
55291;BME280;41155;39.768;2.712;2023-02-20T13:00:02;102224.63;;;41.92;11.94
55291;BME280;41155;39.768;2.712;2023-02-20T13:02:34;102220.97;;;40.56;12.92
55291;BME280;41155;39.768;2.712;2023-02-20T13:05:02;102213.56;;;40.35;12.92
55291;BME280;41155;39.768;2.712;2023-02-20T13:12:26;102196.97;;;40.71;12.13
55291;BME280;41155;39.768;2.712;2023-02-20T13:20:18;102163.63;;;40.52;12.81
55291;BME280;41155;39.768;2.712;2023-02-20T13:25:43;102162.56;;;40.04;13.08
55291;BME280;41155;39.768;2.712;2023-02-20T13:30:40;102167.63;;;40.54;12.46
55291;BME280;41155;39.768;2.712;2023-02-20T13:33:24;102172.00;;;39.45;13.58
55291;BME280;41155;39.768;2.712;2023-02-20T13:35:53;102147.06;;;39.37;13.53
55291;BME280;41155;39.768;2.712;2023-02-20T13:38:22;102142.31;;;38.53;14.15
55291;BME280;41155;39.768;2.712;2023-02-20T13:43:36;102130.72;;;38.29;14.72
55291;BME280;41155;39.768;2.712;2023-02-20T13:48:52;102120.75;;;38.10;15.45
55291;BME280;41155;39.768;2.712;2023-02-20T13:54:16;102144.94;;;37.83;15.50
55291;BME280;41155;39.768;2.712;2023-02-20T13:56:48;102135.28;;;37.08;16.13
55291;BME280;41155;39.768;2.712;2023-02-20T13:59:17;102142.59;;;36.15;16.42
55291;BME280;41155;39.768;2.712;2023-02-20T14:02:11;102142.59;;;35.56;17.99
55291;BME280;41155;39.768;2.712;2023-02-20T14:04:50;102130.31;;;34.90;18.80
55291;BME280;41155;39.768;2.712;2023-02-20T14:10:06;102109.72;;;34.45;18.93
55291;BME280;41155;39.768;2.712;2023-02-20T14:12:33;102111.47;;;34.23;19.00
55291;BME280;41155;39.768;2.712;2023-02-20T14:15:03;102114.50;;;33.84;19.10
55291;BME280;41155;39.768;2.712;2023-02-20T14:17:40;102112.63;;;33.19;20.16
55291;BME280;41155;39.768;2.712;2023-02-20T14:20:18;102077.81;;;32.15;20.89
55291;BME280;41155;39.768;2.712;2023-02-20T14:22:44;102101.91;;;31.53;22.42
55291;BME280;41155;39.768;2.712;2023-02-20T14:27:42;102100.06;;;30.01;24.84
55291;BME280;41155;39.768;2.712;2023-02-20T14:32:41;102091.28;;;28.29;27.76
55291;BME280;41155;39.768;2.712;2023-02-20T14:40:55;102091.13;;;26.80;30.33
55291;BME280;41155;39.768;2.712;2023-02-20T14:43:23;102073.22;;;26.26;31.21
55291;BME280;41155;39.768;2.712;2023-02-20T14:46:01;102060.72;;;25.71;31.03
55291;BME280;41155;39.768;2.712;2023-02-20T14:48:35;102083.50;;;25.68;31.18
55291;BME280;41155;39.768;2.712;2023-02-20T14:51:17;102059.81;;;25.36;31.29
55291;BME280;41155;39.768;2.712;2023-02-20T14:53:59;102080.09;;;25.31;30.88
55291;BME280;41155;39.768;2.712;2023-02-20T14:56:26;102048.75;;;25.04;30.43
55291;BME280;41155;39.768;2.712;2023-02-20T14:58:52;102066.31;;;24.77;30.75
55291;BME280;41155;39.768;2.712;2023-02-20T15:04:04;102037.50;;;24.11;30.96
55291;BME280;41155;39.768;2.712;2023-02-20T15:06:34;102052.13;;;24.11;31.65
55291;BME280;41155;39.768;2.712;2023-02-20T15:09:01;102065.41;;;24.09;32.42
55291;BME280;41155;39.768;2.712;2023-02-20T15:11:27;102068.22;;;23.96;32.76
55291;BME280;41155;39.768;2.712;2023-02-20T15:13:53;102051.88;;;23.85;32.68
55291;BME280;41155;39.768;2.712;2023-02-20T15:18:47;102060.63;;;23.46;33.72
55291;BME280;41155;39.768;2.712;2023-02-20T15:21:28;102017.31;;;22.91;35.32
55291;BME280;41155;39.768;2.712;2023-02-20T15:24:10;102059.09;;;23.12;34.97
55291;BME280;41155;39.768;2.712;2023-02-20T15:26:35;102044.47;;;22.98;34.79
55291;BME280;41155;39.768;2.712;2023-02-20T15:31:43;102051.53;;;23.04;33.88
55291;BME280;41155;39.768;2.712;2023-02-20T15:34:21;102049.97;;;22.98;33.75